NTAA/PPT METAR and TAF weather

Enter ICAO airport designator
Station Type Date Time Source
NTAA METAR 2019/06/17 15:00 UTC NOAA

NTAA 171500Z AUTO 12005KT 9999 NCD 23/20 Q1012 NOSIG


Station Type Date Time Source
NTAA Decoded METAR 2019/06/17 15:00 UTC NOAA

Tahiti-Faaa, French Polynesia (NTAA) 17-33S 149-37W 2M
Jun 17, 2019 - 11:00 AM EDT / 2019.06.17 1500 UTC
Wind: from the ESE (120 degrees) at 6 MPH (5 KT):0
Visibility: greater than 7 mile(s):0
Temperature: 73 F (23 C)
Dew Point: 68 F (20 C)
Relative Humidity: 83%
Pressure (altimeter): 29.88 in. Hg (1012 hPa)
ob: NTAA 171500Z AUTO 12005KT 9999 NCD 23/20 Q1012 NOSIG
cycle: 15

Station Type Date Time Source
NTAA TAF 2019/06/17 12:09 UTC NOAA

TAF NTAA 171100Z 1712/1818 VRB04KT 9999 FEW023 SCT050 PROB40
TEMPO 1720/1805 06015KT

Example: see airport list